createdAt,value
2023-03-05T00:00:38.332Z,29.450
2023-03-05T00:01:29.221Z,29.900
2023-03-05T00:02:51.951Z,28.900
2023-03-05T00:03:49.741Z,29.050
2023-03-05T00:04:37.319Z,29.100
2023-03-05T00:05:24.980Z,29.400
2023-03-05T00:06:32.693Z,29.600
2023-03-05T00:07:51.384Z,29.400
2023-03-05T00:09:12.172Z,29.500
2023-03-05T00:09:51.640Z,29.400
2023-03-05T00:11:03.518Z,29.400
2023-03-05T00:11:36.750Z,29.200
2023-03-05T00:12:33.130Z,28.800
2023-03-05T00:13:54.169Z,28.700
2023-03-05T00:14:49.460Z,28.600
2023-03-05T00:15:36.905Z,29.100
2023-03-05T00:16:27.366Z,28.900
2023-03-05T00:17:25.356Z,28.300
2023-03-05T00:18:42.920Z,29.050
2023-03-05T00:19:54.740Z,28.700
2023-03-05T00:20:57.218Z,28.500
2023-03-05T00:21:51.381Z,29.200
2023-03-05T00:22:38.600Z,28.400
2023-03-05T00:23:25.018Z,29.200
2023-03-05T00:24:27.960Z,28.800
2023-03-05T00:25:22.143Z,28.800
2023-03-05T00:26:32.971Z,28.000
2023-03-05T00:28:00.552Z,28.900
2023-03-05T00:28:23.585Z,27.750
2023-03-05T00:29:40.823Z,28.600
2023-03-05T00:30:28.966Z,28.700
2023-03-05T00:31:31.635Z,28.900
2023-03-05T00:32:28.047Z,28.100
2023-03-05T00:33:34.263Z,28.100
2023-03-05T00:34:21.134Z,28.000
2023-03-05T00:35:42.630Z,28.800
2023-03-05T00:36:43.833Z,29.000
2023-03-05T00:37:30.296Z,28.000
2023-03-05T00:38:35.946Z,28.500
2023-03-05T00:39:20.504Z,28.350
2023-03-05T00:40:23.346Z,28.800
2023-03-05T00:41:23.999Z,27.700
2023-03-05T00:43:03.631Z,28.000
2023-03-05T00:43:46.655Z,27.800
2023-03-05T00:44:33.841Z,28.100
2023-03-05T00:45:25.404Z,29.100
2023-03-05T00:46:33.289Z,27.900
2023-03-05T00:47:27.250Z,27.900
2023-03-05T00:48:29.775Z,28.300
2023-03-05T00:50:08.205Z,27.250
2023-03-05T00:50:49.862Z,27.100
2023-03-05T00:51:32.475Z,28.200
2023-03-05T00:52:24.021Z,27.700
2023-03-05T00:53:36.908Z,26.400
2023-03-05T00:54:31.813Z,27.250
2023-03-05T00:55:23.351Z,27.400
2023-03-05T00:56:22.066Z,27.800
2023-03-05T00:57:37.149Z,27.200
2023-03-05T00:58:39.726Z,27.700
2023-03-05T00:59:28.957Z,26.800
2023-03-05T01:00:43.012Z,27.000
2023-03-05T01:01:34.051Z,28.100
2023-03-05T01:02:30.175Z,27.350
2023-03-05T01:03:21.541Z,27.100
2023-03-05T01:04:54.724Z,27.300
2023-03-05T01:05:42.410Z,28.200
2023-03-05T01:06:29.585Z,27.400
2023-03-05T01:07:19.551Z,27.600
2023-03-05T01:08:34.347Z,26.350
2023-03-05T01:09:33.517Z,26.400
2023-03-05T01:10:29.261Z,26.900
2023-03-05T01:12:00.927Z,26.850
2023-03-05T01:12:46.691Z,26.900
2023-03-05T01:13:28.559Z,26.900
2023-03-05T01:14:42.967Z,26.250
2023-03-05T01:15:44.411Z,26.700
2023-03-05T01:16:37.952Z,25.700
2023-03-05T01:17:28.466Z,26.600
2023-03-05T01:18:22.002Z,26.600
2023-03-05T01:19:29.555Z,26.600
2023-03-05T01:20:35.116Z,25.300
2023-03-05T01:21:23.006Z,25.600
2023-03-05T01:22:48.902Z,26.150
2023-03-05T01:23:43.771Z,26.900
2023-03-05T01:24:22.799Z,25.300
2023-03-05T01:25:26.301Z,25.000
2023-03-05T01:26:48.128Z,25.350
2023-03-05T01:27:37.122Z,25.300
2023-03-05T01:28:27.568Z,25.200
2023-03-05T01:29:53.276Z,26.150
2023-03-05T01:30:28.163Z,26.400
2023-03-05T01:31:41.226Z,27.100
2023-03-05T01:32:29.904Z,26.800
2023-03-05T01:33:24.410Z,26.000
2023-03-05T01:34:41.389Z,26.000
2023-03-05T01:35:29.608Z,27.150
2023-03-05T01:36:31.631Z,25.600
2023-03-05T01:37:50.863Z,25.500
2023-03-05T01:38:35.916Z,25.600
2023-03-05T01:39:23.882Z,26.300
2023-03-05T01:40:28.915Z,25.900
2023-03-05T01:41:23.388Z,25.350
2023-03-05T01:42:30.100Z,26.100
2023-03-05T01:43:50.397Z,25.750
2023-03-05T01:44:54.567Z,25.800
2023-03-05T01:45:39.481Z,25.700
2023-03-05T01:46:25.917Z,26.500
2023-03-05T01:47:27.992Z,26.200
2023-03-05T01:48:24.847Z,26.500
2023-03-05T01:49:33.023Z,25.100
2023-03-05T01:50:19.885Z,25.900
2023-03-05T01:51:57.834Z,27.000
2023-03-05T01:52:20.188Z,26.600
2023-03-05T01:53:29.611Z,26.900
2023-03-05T01:54:32.932Z,26.000
2023-03-05T01:55:30.743Z,25.550
2023-03-05T01:56:22.965Z,25.850
2023-03-05T01:57:23.114Z,25.500
2023-03-05T01:58:25.332Z,25.700
2023-03-05T01:59:39.890Z,25.000
2023-03-05T02:00:33.672Z,24.700
2023-03-05T02:01:38.734Z,24.500
2023-03-05T02:09:24.838Z,25.200
2023-03-05T02:15:25.931Z,24.900
2023-03-05T02:16:46.287Z,24.100
2023-03-05T02:17:50.975Z,23.950
2023-03-05T02:18:26.089Z,23.500
2023-03-05T02:19:20.732Z,25.400
2023-03-05T02:20:19.364Z,24.400
2023-03-05T02:21:34.654Z,23.900
2023-03-05T02:22:31.462Z,24.300
2023-03-05T02:23:41.852Z,24.100
2023-03-05T02:24:34.831Z,23.850
2023-03-05T02:25:28.708Z,24.000
2023-03-05T02:26:26.792Z,23.400
2023-03-05T02:27:37.226Z,22.800
2023-03-05T02:28:44.939Z,22.650
2023-03-05T02:29:32.565Z,23.900
2023-03-05T02:30:47.645Z,23.300
2023-03-05T02:31:40.368Z,23.000
2023-03-05T02:32:33.623Z,23.100
2023-03-05T02:33:26.098Z,23.100
2023-03-05T02:34:22.000Z,24.500
2023-03-05T02:35:47.975Z,23.000
2023-03-05T02:36:35.216Z,23.300
2023-03-05T02:37:23.012Z,23.900
2023-03-05T02:38:35.578Z,23.100
2023-03-05T02:39:37.410Z,21.700
2023-03-05T02:40:31.825Z,22.800
2023-03-05T02:41:22.386Z,21.650
2023-03-05T02:42:51.156Z,23.000
2023-03-05T02:43:29.054Z,22.900
2023-03-05T02:44:22.849Z,23.000
2023-03-05T02:45:48.129Z,22.600
2023-03-05T02:46:41.214Z,22.450
2023-03-05T02:47:35.423Z,22.700
2023-03-05T02:48:27.457Z,22.600
2023-03-05T02:49:23.542Z,22.700
2023-03-05T02:50:40.566Z,23.100
2023-03-05T02:51:29.160Z,23.400
2023-03-05T02:52:52.950Z,22.900
2023-03-05T02:53:45.992Z,22.600
2023-03-05T02:54:24.891Z,22.500
2023-03-05T02:55:22.820Z,22.400
2023-03-05T02:56:22.700Z,22.000
2023-03-05T02:57:21.816Z,22.700
2023-03-05T02:58:29.036Z,22.200
2023-03-05T02:59:56.689Z,21.800
2023-03-05T03:00:29.389Z,22.100
2023-03-05T03:01:39.516Z,21.600
2023-03-05T03:02:25.034Z,22.400
2023-03-05T03:03:29.202Z,21.450
2023-03-05T03:04:19.820Z,22.250
2023-03-05T03:05:22.022Z,22.700
2023-03-05T03:06:33.226Z,21.300
2023-03-05T03:07:47.692Z,21.700
2023-03-05T03:08:42.365Z,22.100
2023-03-05T03:09:30.294Z,22.100
2023-03-05T03:10:31.289Z,21.800
2023-03-05T03:11:25.416Z,22.300
2023-03-05T03:12:24.158Z,20.900
2023-03-05T03:13:22.854Z,21.600
2023-03-05T03:14:57.991Z,20.700
2023-03-05T03:15:44.643Z,21.900
2023-03-05T03:16:30.310Z,20.000
2023-03-05T03:17:30.648Z,21.900
2023-03-05T03:18:29.078Z,20.900
2023-03-05T03:19:22.394Z,20.300
2023-03-05T03:20:19.698Z,21.300
2023-03-05T03:22:22.029Z,21.450
2023-03-05T03:23:36.899Z,22.200
2023-03-05T03:24:22.405Z,20.600
2023-03-05T03:25:31.624Z,22.300
2023-03-05T03:26:26.657Z,20.950
2023-03-05T03:27:23.667Z,20.100
2023-03-05T03:28:28.175Z,20.500
2023-03-05T03:29:42.270Z,21.000
2023-03-05T03:30:38.920Z,20.200
2023-03-05T03:31:25.340Z,19.700
2023-03-05T03:32:35.834Z,20.400
2023-03-05T03:33:28.692Z,21.200
2023-03-05T03:34:24.132Z,20.000
2023-03-05T03:35:20.822Z,20.000
2023-03-05T03:36:54.133Z,19.400
2023-03-05T03:37:41.208Z,20.400
2023-03-05T03:38:49.229Z,19.800
2023-03-05T03:39:25.942Z,19.350
2023-03-05T03:40:35.574Z,20.250
2023-03-05T03:41:30.327Z,20.600
2023-03-05T03:42:22.830Z,20.700
2023-03-05T03:43:56.415Z,20.100
2023-03-05T03:44:43.357Z,20.500
2023-03-05T03:45:52.539Z,18.500
2023-03-05T03:46:45.056Z,19.200
2023-03-05T03:47:37.962Z,19.900
2023-03-05T03:48:32.319Z,20.300
2023-03-05T03:49:26.083Z,18.800
2023-03-05T03:50:22.788Z,19.300
2023-03-05T03:51:35.771Z,19.500
2023-03-05T03:52:32.108Z,19.900
2023-03-05T03:53:21.300Z,19.000
2023-03-05T03:54:42.524Z,19.900
2023-03-05T03:55:34.046Z,19.100
2023-03-05T03:56:30.000Z,18.500
2023-03-05T03:57:19.717Z,18.700
2023-03-05T03:58:19.664Z,19.500
2023-03-05T03:59:36.774Z,19.000
2023-03-05T04:00:22.970Z,20.100
2023-03-05T04:01:47.052Z,20.300
2023-03-05T04:02:32.716Z,20.000
2023-03-05T04:03:32.491Z,19.400
2023-03-05T04:04:23.951Z,19.300
2023-03-05T04:05:28.849Z,19.050
2023-03-05T04:06:41.883Z,20.600
2023-03-05T04:07:31.752Z,19.200
2023-03-05T04:08:42.458Z,18.750
2023-03-05T04:09:49.324Z,19.100
2023-03-05T04:10:41.363Z,19.500
2023-03-05T04:11:38.248Z,19.000
2023-03-05T04:12:25.427Z,18.900
2023-03-05T04:13:24.567Z,19.200
2023-03-05T04:14:45.163Z,19.200
2023-03-05T04:16:00.802Z,19.450
2023-03-05T04:16:51.496Z,18.200
2023-03-05T04:17:43.133Z,18.500
2023-03-05T04:18:21.959Z,18.700
2023-03-05T04:19:27.233Z,18.600
2023-03-05T04:20:27.230Z,18.750
2023-03-05T04:21:35.753Z,20.100
2023-03-05T04:23:01.041Z,19.250
2023-03-05T04:23:56.064Z,20.000
2023-03-05T04:24:27.041Z,20.500
2023-03-05T04:25:28.137Z,19.500
2023-03-05T04:26:29.881Z,20.700
2023-03-05T04:27:23.936Z,18.550
2023-03-05T04:28:22.523Z,18.650
2023-03-05T04:30:30.214Z,18.650
2023-03-05T04:31:57.098Z,19.000
2023-03-05T04:32:47.916Z,18.600
2023-03-05T04:33:35.355Z,19.200
2023-03-05T04:34:31.436Z,19.350
2023-03-05T04:35:29.859Z,19.400
2023-03-05T04:36:25.759Z,19.600
2023-03-05T04:37:54.823Z,19.350
2023-03-05T04:38:52.157Z,19.300
2023-03-05T04:39:49.853Z,19.900
2023-03-05T04:40:27.498Z,19.100
2023-03-05T04:41:34.953Z,18.300
2023-03-05T04:42:27.453Z,19.050
2023-03-05T04:43:28.687Z,19.300
2023-03-05T04:45:15.875Z,19.250
2023-03-05T04:45:52.013Z,19.900
2023-03-05T04:46:39.482Z,18.700
2023-03-05T04:47:24.596Z,18.950
2023-03-05T04:48:36.747Z,19.900
2023-03-05T04:49:30.887Z,19.400
2023-03-05T04:50:22.156Z,20.000
2023-03-05T04:51:22.634Z,18.600
2023-03-05T04:52:24.719Z,18.950
2023-03-05T04:53:39.385Z,17.800
2023-03-05T04:54:29.638Z,18.500
2023-03-05T04:55:37.906Z,18.200
2023-03-05T04:56:32.053Z,18.850
2023-03-05T04:57:24.256Z,18.100
2023-03-05T04:58:29.202Z,18.800
2023-03-05T04:59:43.904Z,18.500
2023-03-05T05:00:42.514Z,18.050
2023-03-05T05:01:50.811Z,18.700
2023-03-05T05:02:43.443Z,18.700
2023-03-05T05:03:22.671Z,17.400
2023-03-05T05:04:29.243Z,17.000
2023-03-05T05:05:25.089Z,17.300
2023-03-05T05:07:01.857Z,17.100
2023-03-05T05:07:47.601Z,16.800
2023-03-05T05:08:32.926Z,17.500
2023-03-05T05:09:26.135Z,17.600
2023-03-05T05:10:41.577Z,17.800
2023-03-05T05:11:33.197Z,18.300
2023-03-05T05:12:26.426Z,17.300
2023-03-05T05:13:29.097Z,16.150
2023-03-05T05:14:19.491Z,16.500
2023-03-05T05:15:33.125Z,17.100
2023-03-05T05:16:21.417Z,16.900
2023-03-05T05:17:45.341Z,16.900
2023-03-05T05:18:36.136Z,18.700
2023-03-05T05:19:29.662Z,17.700
2023-03-05T05:20:22.815Z,17.900
2023-03-05T05:21:24.278Z,17.400
2023-03-05T05:22:37.077Z,16.700
2023-03-05T05:23:55.662Z,17.200
2023-03-05T05:24:47.889Z,17.700
2023-03-05T05:25:41.859Z,17.800
2023-03-05T05:26:34.816Z,17.700
2023-03-05T05:27:20.572Z,19.700
2023-03-05T05:28:55.069Z,19.600
2023-03-05T05:29:20.644Z,19.900
2023-03-05T05:30:28.071Z,19.200
2023-03-05T05:31:20.232Z,19.750
2023-03-05T05:32:34.609Z,19.700
2023-03-05T05:33:38.488Z,19.500
2023-03-05T05:34:31.595Z,19.500
2023-03-05T05:35:22.442Z,19.500
2023-03-05T05:36:25.285Z,19.050
2023-03-05T05:37:30.675Z,18.800
2023-03-05T05:38:39.921Z,18.850
2023-03-05T05:39:49.048Z,19.000
2023-03-05T05:40:40.704Z,17.600
2023-03-05T05:41:29.929Z,17.700
2023-03-05T05:42:28.461Z,18.000
2023-03-05T05:43:19.808Z,18.000
2023-03-05T05:44:22.859Z,17.600
2023-03-05T05:46:00.386Z,17.900
2023-03-05T05:46:56.014Z,18.700
2023-03-05T05:47:41.214Z,17.600
2023-03-05T05:48:23.885Z,17.200
2023-03-05T05:49:30.770Z,17.500
2023-03-05T05:50:24.050Z,19.050
2023-03-05T05:51:29.292Z,18.500
2023-03-05T05:52:19.793Z,19.300
2023-03-05T05:53:59.337Z,18.900
2023-03-05T05:54:30.203Z,19.300
2023-03-05T05:55:33.273Z,19.600
2023-03-05T05:56:36.976Z,20.300
2023-03-05T05:57:27.980Z,18.200
2023-03-05T05:58:22.950Z,17.950
2023-03-05T05:59:27.716Z,17.600
2023-03-05T06:00:32.112Z,19.200
2023-03-05T06:01:49.800Z,19.350
2023-03-05T06:02:36.287Z,19.500
2023-03-05T06:03:23.283Z,18.400
2023-03-05T06:04:31.803Z,17.400
2023-03-05T06:05:28.890Z,17.950
2023-03-05T06:06:29.683Z,17.600
2023-03-05T06:07:20.734Z,19.200
2023-03-05T06:08:52.748Z,19.150
2023-03-05T06:09:40.074Z,19.200
2023-03-05T06:10:24.628Z,18.800
2023-03-05T06:11:29.767Z,19.250
2023-03-05T06:12:41.611Z,20.400
2023-03-05T06:13:21.494Z,21.100
2023-03-05T06:14:19.459Z,20.800
2023-03-05T06:16:21.149Z,20.600
2023-03-05T06:17:31.210Z,19.200
2023-03-05T06:18:41.169Z,19.900
2023-03-05T06:19:34.037Z,20.000
2023-03-05T06:20:26.953Z,19.600
2023-03-05T06:21:22.517Z,19.000
2023-03-05T06:22:22.452Z,20.100
2023-03-05T06:23:40.572Z,19.250
2023-03-05T06:24:33.018Z,18.300
2023-03-05T06:25:45.166Z,18.900
2023-03-05T06:26:38.081Z,18.800
2023-03-05T06:27:40.260Z,18.200
2023-03-05T06:28:25.686Z,20.300
2023-03-05T06:29:29.957Z,20.400
2023-03-05T06:30:19.925Z,20.500
2023-03-05T06:31:37.404Z,17.500
2023-03-05T06:32:20.757Z,19.500
2023-03-05T06:33:25.334Z,19.450
2023-03-05T06:34:38.325Z,20.700
2023-03-05T06:35:30.804Z,20.100
2023-03-05T06:36:20.834Z,22.500
2023-03-05T06:37:24.572Z,20.950
2023-03-05T06:38:37.294Z,19.900
2023-03-05T06:39:23.591Z,22.200
2023-03-05T06:40:42.172Z,19.700
2023-03-05T06:41:39.075Z,20.700
2023-03-05T06:42:32.760Z,19.300
2023-03-05T06:43:24.260Z,18.600
2023-03-05T06:44:29.516Z,20.400
2023-03-05T06:45:34.858Z,19.950
2023-03-05T06:46:26.482Z,18.500
2023-03-05T06:47:50.369Z,21.900
2023-03-05T06:48:42.975Z,19.000
2023-03-05T06:49:34.981Z,19.300
2023-03-05T06:50:22.727Z,18.400
2023-03-05T06:51:22.012Z,19.900
2023-03-05T06:52:24.999Z,18.850
2023-03-05T06:54:01.247Z,20.000
2023-03-05T06:54:54.227Z,19.000
2023-03-05T06:55:47.572Z,17.900
2023-03-05T06:56:32.149Z,17.900
2023-03-05T06:57:27.033Z,20.000
2023-03-05T06:58:24.739Z,18.000
2023-03-05T06:59:46.616Z,18.250
2023-03-05T07:00:25.576Z,17.800
2023-03-05T07:01:22.532Z,16.800
2023-03-05T07:02:36.265Z,18.700
2023-03-05T07:03:45.084Z,16.900
2023-03-05T07:04:31.244Z,18.300
2023-03-05T07:05:29.645Z,19.500
2023-03-05T07:06:22.136Z,18.300
2023-03-05T07:07:30.915Z,20.650
2023-03-05T07:08:23.177Z,18.600
2023-03-05T07:09:57.231Z,19.450
2023-03-05T07:10:45.459Z,20.850
2023-03-05T07:11:33.049Z,21.800
2023-03-05T07:12:32.374Z,19.600
2023-03-05T07:13:28.180Z,21.500
2023-03-05T07:14:31.710Z,21.000
2023-03-05T07:15:25.681Z,20.500
2023-03-05T07:16:59.368Z,20.550
2023-03-05T07:17:48.781Z,20.500
2023-03-05T07:18:25.282Z,20.400
2023-03-05T07:19:20.586Z,20.600
2023-03-05T07:20:44.247Z,20.700
2023-03-05T07:21:23.880Z,21.500
2023-03-05T07:22:28.075Z,21.400
2023-03-05T07:24:29.232Z,21.950
2023-03-05T07:25:37.641Z,22.400
2023-03-05T07:26:25.176Z,22.800
2023-03-05T07:27:35.384Z,21.950
2023-03-05T07:28:26.592Z,21.000
2023-03-05T07:29:23.152Z,21.800
2023-03-05T07:30:25.053Z,22.400
2023-03-05T07:31:48.971Z,22.500
2023-03-05T07:32:40.750Z,22.150
2023-03-05T07:33:30.390Z,22.100
2023-03-05T07:34:37.807Z,22.400
2023-03-05T07:35:33.261Z,22.300
2023-03-05T07:36:25.416Z,22.700
2023-03-05T07:37:21.615Z,23.300
2023-03-05T07:38:24.108Z,22.200
2023-03-05T07:39:46.339Z,23.150
2023-03-05T07:40:29.967Z,21.300
2023-03-05T07:41:33.507Z,22.550
2023-03-05T07:42:36.352Z,22.450
2023-03-05T07:43:30.462Z,22.500
2023-03-05T07:44:26.502Z,21.900
2023-03-05T07:45:28.412Z,22.700
2023-03-05T07:46:20.153Z,22.900
2023-03-05T07:47:34.936Z,21.500
2023-03-05T07:48:20.472Z,21.900
2023-03-05T07:49:40.794Z,21.750
2023-03-05T07:50:33.337Z,21.500
2023-03-05T07:51:24.696Z,21.000
2023-03-05T07:52:31.376Z,20.700
2023-03-05T07:53:24.210Z,22.450
2023-03-05T07:54:36.136Z,21.400
2023-03-05T07:55:23.042Z,22.500
2023-03-05T07:56:57.551Z,22.300
2023-03-05T07:57:20.329Z,21.300
2023-03-05T07:58:34.382Z,21.600
2023-03-05T07:59:23.096Z,22.000
2023-03-05T08:00:30.254Z,23.000
2023-03-05T08:01:21.465Z,21.900
2023-03-05T08:02:26.286Z,23.600
2023-03-05T08:03:26.141Z,20.550
2023-03-05T08:04:41.999Z,21.300
2023-03-05T08:05:34.901Z,22.500
2023-03-05T08:06:21.542Z,23.300
2023-03-05T08:07:32.251Z,22.500
2023-03-05T08:09:29.633Z,23.050
2023-03-05T08:10:45.847Z,21.500
2023-03-05T08:11:44.195Z,21.600
2023-03-05T08:12:38.795Z,21.200
2023-03-05T08:13:23.657Z,23.400
2023-03-05T08:14:24.773Z,23.250
2023-03-05T08:15:30.761Z,23.350
2023-03-05T08:16:23.332Z,23.600
2023-03-05T08:17:56.216Z,23.500
2023-03-05T08:18:49.468Z,21.850
2023-03-05T08:19:43.124Z,23.600
2023-03-05T08:20:29.494Z,23.100
2023-03-05T08:21:26.602Z,22.400
2023-03-05T08:22:20.494Z,23.150
2023-03-05T08:23:27.241Z,23.000
2023-03-05T08:24:21.415Z,23.000
2023-03-05T08:25:53.383Z,22.100
2023-03-05T08:26:34.330Z,22.700
2023-03-05T08:27:31.476Z,22.700
2023-03-05T08:28:32.369Z,23.200
2023-03-05T08:29:24.461Z,22.550
2023-03-05T08:30:32.034Z,23.200
2023-03-05T08:31:24.818Z,22.700
2023-03-05T08:32:38.512Z,21.850
2023-03-05T08:33:51.449Z,21.600
2023-03-05T08:34:33.549Z,21.600
2023-03-05T08:35:22.130Z,22.400
2023-03-05T08:36:29.951Z,22.800
2023-03-05T08:37:22.895Z,23.000
2023-03-05T08:38:29.127Z,23.000
2023-03-05T08:39:21.318Z,24.200
2023-03-05T08:40:53.696Z,21.800
2023-03-05T08:41:36.936Z,21.800
2023-03-05T08:42:23.894Z,21.300
2023-03-05T08:43:33.810Z,23.100
2023-03-05T08:44:26.752Z,22.600
2023-03-05T08:45:32.281Z,23.900
2023-03-05T08:46:25.551Z,23.350
2023-03-05T08:47:53.648Z,23.300
2023-03-05T08:48:29.093Z,23.300
2023-03-05T08:49:25.961Z,23.300
2023-03-05T08:50:38.016Z,23.100
2023-03-05T08:51:45.075Z,24.550
2023-03-05T08:52:23.518Z,22.700
2023-03-05T08:53:20.880Z,23.300
2023-03-05T08:54:22.929Z,23.000
2023-03-05T08:55:45.115Z,22.800
2023-03-05T08:56:30.317Z,22.400
2023-03-05T08:57:40.915Z,22.850
2023-03-05T08:58:33.074Z,21.600
2023-03-05T08:59:30.285Z,23.850
2023-03-05T09:00:23.553Z,23.300
2023-03-05T09:01:29.352Z,22.300
2023-03-05T09:02:22.680Z,21.400
2023-03-05T09:03:33.320Z,21.900
2023-03-05T09:04:45.315Z,22.200
2023-03-05T09:05:31.114Z,22.950
2023-03-05T09:06:42.002Z,23.400
2023-03-05T09:07:24.169Z,24.000
2023-03-05T09:08:33.753Z,24.450
2023-03-05T09:09:24.401Z,24.200
2023-03-05T09:10:21.828Z,23.850
2023-03-05T09:11:21.679Z,23.800
2023-03-05T09:12:42.666Z,24.000
2023-03-05T09:13:35.247Z,23.400
2023-03-05T09:14:31.440Z,25.200
2023-03-05T09:15:20.209Z,25.000
2023-03-05T09:16:24.944Z,24.250
2023-03-05T09:17:23.182Z,24.300
2023-03-05T09:18:24.737Z,23.850
2023-03-05T09:19:45.951Z,24.100
2023-03-05T09:20:39.522Z,24.700
2023-03-05T09:21:33.395Z,25.800
2023-03-05T09:22:22.111Z,24.400
2023-03-05T09:23:32.684Z,24.700
2023-03-05T09:24:29.181Z,25.950
2023-03-05T09:25:28.496Z,25.550
2023-03-05T09:26:50.179Z,24.800
2023-03-05T09:27:23.763Z,25.100
2023-03-05T09:28:38.004Z,24.600
2023-03-05T09:29:23.962Z,25.600
2023-03-05T09:30:20.786Z,25.100
2023-03-05T09:31:45.713Z,24.800
2023-03-05T09:32:24.479Z,24.000
2023-03-05T09:33:29.983Z,25.600
2023-03-05T09:34:41.868Z,25.900
2023-03-05T09:35:40.449Z,25.300
2023-03-05T09:36:27.143Z,24.800
2023-03-05T09:37:24.346Z,25.400
2023-03-05T09:38:34.360Z,25.800
2023-03-05T09:39:28.858Z,26.000
2023-03-05T09:40:20.493Z,26.450
2023-03-05T09:41:51.878Z,27.000
2023-03-05T09:42:44.624Z,25.800
2023-03-05T09:43:30.588Z,25.700
2023-03-05T09:44:24.188Z,25.200
2023-03-05T09:45:21.480Z,26.350
2023-03-05T09:46:31.264Z,25.500
2023-03-05T09:47:26.826Z,25.700
2023-03-05T09:48:44.810Z,26.300
2023-03-05T09:49:48.251Z,25.600
2023-03-05T09:50:32.981Z,26.100
2023-03-05T09:51:33.124Z,26.000
2023-03-05T09:52:25.679Z,25.050
2023-03-05T09:53:23.289Z,26.500
2023-03-05T09:54:29.332Z,25.800
2023-03-05T09:55:21.567Z,25.550
2023-03-05T09:56:35.299Z,25.700
2023-03-05T09:57:45.369Z,25.700
2023-03-05T09:58:23.535Z,26.050
2023-03-05T09:59:31.378Z,26.000
2023-03-05T10:00:22.593Z,25.800
2023-03-05T10:01:29.608Z,25.350
2023-03-05T10:02:28.498Z,24.950
2023-03-05T10:03:25.002Z,25.400
2023-03-05T10:04:36.090Z,25.550
2023-03-05T10:05:24.984Z,25.900
2023-03-05T10:06:28.425Z,25.200
2023-03-05T10:07:24.532Z,25.300
2023-03-05T10:08:21.507Z,26.000
2023-03-05T10:09:20.218Z,25.800
2023-03-05T10:10:22.801Z,25.600
2023-03-05T10:11:42.172Z,26.150
2023-03-05T10:12:24.084Z,25.200
2023-03-05T10:13:39.249Z,25.350
2023-03-05T10:14:31.952Z,25.000
2023-03-05T10:15:25.658Z,25.900
2023-03-05T10:16:23.032Z,26.950
2023-03-05T10:17:29.875Z,26.500
2023-03-05T10:18:31.006Z,26.400
2023-03-05T10:19:50.830Z,26.700
2023-03-05T10:20:43.831Z,26.700
2023-03-05T10:21:39.233Z,25.700
2023-03-05T10:22:29.834Z,26.500
2023-03-05T10:23:22.613Z,26.300
2023-03-05T10:24:33.183Z,26.100
2023-03-05T10:25:24.630Z,25.650
2023-03-05T10:26:35.161Z,25.500
2023-03-05T10:27:21.010Z,25.400
2023-03-05T10:28:40.289Z,27.400
2023-03-05T10:29:26.868Z,26.600
2023-03-05T10:30:26.352Z,26.600
2023-03-05T10:31:24.665Z,25.800
2023-03-05T10:32:30.017Z,27.050
2023-03-05T10:33:22.217Z,26.550
2023-03-05T10:34:24.043Z,25.700
2023-03-05T10:35:44.440Z,25.750
2023-03-05T10:36:35.841Z,26.100
2023-03-05T10:37:33.595Z,27.000
2023-03-05T10:38:25.309Z,26.100
2023-03-05T10:39:20.574Z,25.200
2023-03-05T10:40:21.893Z,25.200
2023-03-05T10:41:35.065Z,25.950
2023-03-05T10:42:49.120Z,26.400
2023-03-05T10:43:32.750Z,25.900
2023-03-05T10:44:35.939Z,25.100
2023-03-05T10:45:22.089Z,24.300
2023-03-05T10:46:21.827Z,24.950
2023-03-05T10:47:31.036Z,25.900
2023-03-05T10:48:22.953Z,26.950
2023-03-05T10:49:23.204Z,25.900
2023-03-05T10:50:35.003Z,24.700
2023-03-05T10:51:28.843Z,25.500
2023-03-05T10:52:33.389Z,25.400
2023-03-05T10:53:22.473Z,25.800
2023-03-05T10:54:30.908Z,25.000
2023-03-05T10:55:30.526Z,25.850
2023-03-05T10:56:20.392Z,25.950
2023-03-05T10:57:25.089Z,25.500
2023-03-05T10:58:29.829Z,26.450
2023-03-05T10:59:28.059Z,25.800
2023-03-05T11:00:21.300Z,25.400
2023-03-05T11:01:21.193Z,25.500
2023-03-05T11:02:33.273Z,25.800
2023-03-05T11:03:25.160Z,26.000
2023-03-05T11:04:32.557Z,26.300
2023-03-05T11:05:29.349Z,25.100
2023-03-05T11:06:26.529Z,24.400
2023-03-05T11:07:21.240Z,24.000
2023-03-05T11:08:25.755Z,25.250
2023-03-05T11:09:30.686Z,26.400
2023-03-05T11:10:25.388Z,25.600
2023-03-05T11:11:23.311Z,26.450
2023-03-05T11:12:30.252Z,26.550
2023-03-05T11:13:25.018Z,28.100
2023-03-05T11:14:29.206Z,26.900
2023-03-05T11:15:27.404Z,28.050
2023-03-05T11:16:21.151Z,26.500
2023-03-05T11:17:24.225Z,27.350
2023-03-05T11:18:27.963Z,25.750
2023-03-05T11:19:29.521Z,27.000
2023-03-05T11:20:26.058Z,26.000
2023-03-05T11:21:20.698Z,28.500
2023-03-05T11:22:31.741Z,26.800
2023-03-05T11:23:29.948Z,26.700
2023-03-05T11:24:22.917Z,26.600
2023-03-05T11:25:23.377Z,25.550
2023-03-05T11:26:22.711Z,25.850
2023-03-05T11:27:24.534Z,26.500
2023-03-05T11:28:32.310Z,25.850
2023-03-05T11:29:31.860Z,25.250
2023-03-05T11:30:28.997Z,26.400
2023-03-05T11:31:24.509Z,25.250
2023-03-05T11:32:22.296Z,26.450
2023-03-05T11:33:30.182Z,25.900
2023-03-05T11:34:20.577Z,26.450
2023-03-05T11:35:21.020Z,25.000
2023-03-05T11:36:21.363Z,25.250
2023-03-05T11:37:29.491Z,26.350
2023-03-05T11:38:25.888Z,26.600
2023-03-05T11:39:25.910Z,26.200
2023-03-05T11:40:33.549Z,25.250
2023-03-05T11:41:24.397Z,25.100
2023-03-05T11:42:25.411Z,25.000
2023-03-05T11:43:19.797Z,24.850
2023-03-05T11:44:37.791Z,26.550
2023-03-05T11:45:23.174Z,26.900
2023-03-05T11:46:22.784Z,25.900
2023-03-05T11:47:30.011Z,26.700
2023-03-05T11:48:25.209Z,25.100
2023-03-05T11:49:23.852Z,26.300
2023-03-05T11:50:22.877Z,26.900
2023-03-05T11:51:27.620Z,27.300
2023-03-05T11:52:24.330Z,27.050
2023-03-05T11:53:21.883Z,25.300
2023-03-05T11:54:19.817Z,25.200
2023-03-05T11:55:25.783Z,25.100
2023-03-05T11:56:20.407Z,25.200
2023-03-05T11:57:26.323Z,26.300
2023-03-05T11:58:31.145Z,26.150
2023-03-05T11:59:23.608Z,25.250
2023-03-05T12:00:34.748Z,25.400
2023-03-05T12:01:25.373Z,24.600
2023-03-05T12:02:24.864Z,24.650
2023-03-05T12:03:21.229Z,24.700
2023-03-05T12:04:23.242Z,23.650
2023-03-05T12:05:28.841Z,24.600
2023-03-05T12:06:23.142Z,24.600
2023-03-05T12:07:37.058Z,22.100
2023-03-05T12:08:23.793Z,24.100
2023-03-05T12:09:21.578Z,23.400
2023-03-05T12:10:24.365Z,22.550
2023-03-05T12:11:31.973Z,23.650
2023-03-05T12:12:20.691Z,23.750
2023-03-05T12:13:23.121Z,24.400
2023-03-05T12:14:32.503Z,24.250
2023-03-05T12:15:32.911Z,23.000
2023-03-05T12:16:26.285Z,22.500
2023-03-05T12:17:24.100Z,22.850
2023-03-05T12:18:34.228Z,23.200
2023-03-05T12:19:21.763Z,24.100
2023-03-05T12:20:23.037Z,23.200
2023-03-05T12:21:22.678Z,23.250
2023-03-05T12:22:29.488Z,24.400
2023-03-05T12:23:25.001Z,23.300
2023-03-05T12:24:22.373Z,22.950
2023-03-05T12:25:32.628Z,22.300
2023-03-05T12:26:27.169Z,23.100
2023-03-05T12:27:25.363Z,22.500
2023-03-05T12:28:34.783Z,22.600
2023-03-05T12:29:32.740Z,22.800
2023-03-05T12:30:20.214Z,22.650
2023-03-05T12:31:27.486Z,22.950
2023-03-05T12:32:31.063Z,22.800
2023-03-05T12:33:32.897Z,21.700
2023-03-05T12:34:22.876Z,21.250
2023-03-05T12:35:34.140Z,22.000
2023-03-05T12:36:29.770Z,21.600
2023-03-05T12:37:26.328Z,21.950
2023-03-05T12:38:27.048Z,22.000
2023-03-05T12:39:22.984Z,23.400
2023-03-05T12:40:27.117Z,21.800
2023-03-05T12:41:26.258Z,21.700
2023-03-05T12:42:24.157Z,21.650
2023-03-05T12:43:29.966Z,23.400
2023-03-05T12:44:30.874Z,22.750
2023-03-05T12:45:21.089Z,23.600